sensor_id;sensor_type;location;lat;lon;timestamp;temperature;humidity
19256;DHT22;9762;52.490;13.410;2023-06-22T00:00:53;25.70;93.50
19256;DHT22;9762;52.490;13.410;2023-06-22T00:03:20;25.70;93.90
19256;DHT22;9762;52.490;13.410;2023-06-22T00:05:50;25.70;93.60
19256;DHT22;9762;52.490;13.410;2023-06-22T00:08:16;25.70;93.40
19256;DHT22;9762;52.490;13.410;2023-06-22T00:10:44;25.70;93.10
19256;DHT22;9762;52.490;13.410;2023-06-22T00:13:10;25.80;92.90
19256;DHT22;9762;52.490;13.410;2023-06-22T00:15:37;25.80;93.20
19256;DHT22;9762;52.490;13.410;2023-06-22T00:18:08;25.80;92.80
19256;DHT22;9762;52.490;13.410;2023-06-22T00:20:34;25.70;92.70
19256;DHT22;9762;52.490;13.410;2023-06-22T00:23:03;25.80;92.60
19256;DHT22;9762;52.490;13.410;2023-06-22T00:25:35;25.80;92.60
19256;DHT22;9762;52.490;13.410;2023-06-22T00:28:02;25.80;92.70
19256;DHT22;9762;52.490;13.410;2023-06-22T00:30:28;25.80;92.60
19256;DHT22;9762;52.490;13.410;2023-06-22T00:32:53;25.80;92.60
19256;DHT22;9762;52.490;13.410;2023-06-22T00:35:19;25.80;92.60
19256;DHT22;9762;52.490;13.410;2023-06-22T00:37:45;25.80;92.70
19256;DHT22;9762;52.490;13.410;2023-06-22T00:40:11;25.80;92.70
19256;DHT22;9762;52.490;13.410;2023-06-22T00:42:37;25.80;92.70
19256;DHT22;9762;52.490;13.410;2023-06-22T00:45:05;25.70;92.60
19256;DHT22;9762;52.490;13.410;2023-06-22T00:47:30;25.80;92.80
19256;DHT22;9762;52.490;13.410;2023-06-22T00:49:56;25.70;92.80
19256;DHT22;9762;52.490;13.410;2023-06-22T00:52:23;25.50;92.90
19256;DHT22;9762;52.490;13.410;2023-06-22T00:54:53;25.60;93.50
19256;DHT22;9762;52.490;13.410;2023-06-22T00:57:19;25.60;93.80
19256;DHT22;9762;52.490;13.410;2023-06-22T00:59:46;25.60;93.80
19256;DHT22;9762;52.490;13.410;2023-06-22T01:02:13;25.60;94.00
19256;DHT22;9762;52.490;13.410;2023-06-22T01:04:39;25.60;94.20
19256;DHT22;9762;52.490;13.410;2023-06-22T01:09:51;25.50;94.60
19256;DHT22;9762;52.490;13.410;2023-06-22T01:12:19;25.50;95.20
19256;DHT22;9762;52.490;13.410;2023-06-22T01:15:04;25.50;95.10
19256;DHT22;9762;52.490;13.410;2023-06-22T01:17:32;25.40;95.20
19256;DHT22;9762;52.490;13.410;2023-06-22T01:19:58;25.40;95.10
19256;DHT22;9762;52.490;13.410;2023-06-22T01:22:30;25.50;95.20
19256;DHT22;9762;52.490;13.410;2023-06-22T01:25:09;25.40;95.20
19256;DHT22;9762;52.490;13.410;2023-06-22T01:30:20;25.40;95.30
19256;DHT22;9762;52.490;13.410;2023-06-22T01:32:47;25.40;95.50
19256;DHT22;9762;52.490;13.410;2023-06-22T01:35:13;25.30;96.10
19256;DHT22;9762;52.490;13.410;2023-06-22T01:37:40;25.30;96.80
19256;DHT22;9762;52.490;13.410;2023-06-22T01:40:07;25.30;97.00
19256;DHT22;9762;52.490;13.410;2023-06-22T01:42:34;25.30;97.80
19256;DHT22;9762;52.490;13.410;2023-06-22T01:45:00;25.20;98.30
19256;DHT22;9762;52.490;13.410;2023-06-22T01:47:27;25.20;98.40
19256;DHT22;9762;52.490;13.410;2023-06-22T01:49:53;25.20;99.00
19256;DHT22;9762;52.490;13.410;2023-06-22T01:52:19;25.40;99.10
19256;DHT22;9762;52.490;13.410;2023-06-22T01:54:46;25.20;99.00
19256;DHT22;9762;52.490;13.410;2023-06-22T01:57:13;25.10;99.20
19256;DHT22;9762;52.490;13.410;2023-06-22T02:02:16;25.20;99.90
19256;DHT22;9762;52.490;13.410;2023-06-22T02:04:44;25.10;99.90
19256;DHT22;9762;52.490;13.410;2023-06-22T02:07:14;25.10;99.90
19256;DHT22;9762;52.490;13.410;2023-06-22T02:09:44;25.00;99.90
19256;DHT22;9762;52.490;13.410;2023-06-22T02:12:12;25.00;99.90
19256;DHT22;9762;52.490;13.410;2023-06-22T02:14:39;25.10;99.90
19256;DHT22;9762;52.490;13.410;2023-06-22T02:17:05;25.10;99.90
19256;DHT22;9762;52.490;13.410;2023-06-22T02:19:36;24.80;99.90
19256;DHT22;9762;52.490;13.410;2023-06-22T02:22:01;24.90;99.90
19256;DHT22;9762;52.490;13.410;2023-06-22T02:24:27;24.80;99.90
19256;DHT22;9762;52.490;13.410;2023-06-22T02:27:00;24.90;99.90
19256;DHT22;9762;52.490;13.410;2023-06-22T02:29:26;24.90;99.90
19256;DHT22;9762;52.490;13.410;2023-06-22T02:31:55;24.90;99.90
19256;DHT22;9762;52.490;13.410;2023-06-22T02:34:21;25.00;99.90
19256;DHT22;9762;52.490;13.410;2023-06-22T02:36:48;24.90;99.90
19256;DHT22;9762;52.490;13.410;2023-06-22T02:39:21;25.00;99.90
19256;DHT22;9762;52.490;13.410;2023-06-22T02:41:49;25.00;99.90
19256;DHT22;9762;52.490;13.410;2023-06-22T02:44:15;25.00;99.90
19256;DHT22;9762;52.490;13.410;2023-06-22T02:46:40;24.90;99.90
19256;DHT22;9762;52.490;13.410;2023-06-22T02:49:06;24.80;99.90
19256;DHT22;9762;52.490;13.410;2023-06-22T02:51:33;24.80;99.90
19256;DHT22;9762;52.490;13.410;2023-06-22T02:53:59;24.80;99.90
19256;DHT22;9762;52.490;13.410;2023-06-22T03:03:49;24.60;99.90
19256;DHT22;9762;52.490;13.410;2023-06-22T03:06:15;24.60;99.90
19256;DHT22;9762;52.490;13.410;2023-06-22T03:08:41;24.60;99.90
19256;DHT22;9762;52.490;13.410;2023-06-22T03:28:12;24.50;99.90
19256;DHT22;9762;52.490;13.410;2023-06-22T03:30:38;24.30;99.90
19256;DHT22;9762;52.490;13.410;2023-06-22T03:33:03;24.30;99.90
19256;DHT22;9762;52.490;13.410;2023-06-22T03:35:29;24.30;99.90
19256;DHT22;9762;52.490;13.410;2023-06-22T03:37:54;24.30;99.90
19256;DHT22;9762;52.490;13.410;2023-06-22T03:57:23;24.70;99.90
19256;DHT22;9762;52.490;13.410;2023-06-22T03:59:49;24.80;99.90
19256;DHT22;9762;52.490;13.410;2023-06-22T04:16:52;25.10;99.90
19256;DHT22;9762;52.490;13.410;2023-06-22T04:19:17;25.20;99.90
19256;DHT22;9762;52.490;13.410;2023-06-22T04:21:44;25.20;99.90
19256;DHT22;9762;52.490;13.410;2023-06-22T04:24:12;25.10;99.90
19256;DHT22;9762;52.490;13.410;2023-06-22T04:26:38;25.10;99.90
19256;DHT22;9762;52.490;13.410;2023-06-22T04:29:07;25.10;99.90
19256;DHT22;9762;52.490;13.410;2023-06-22T04:31:34;25.20;99.90
19256;DHT22;9762;52.490;13.410;2023-06-22T04:34:04;25.20;99.90
19256;DHT22;9762;52.490;13.410;2023-06-22T04:36:40;25.20;99.90
19256;DHT22;9762;52.490;13.410;2023-06-22T04:39:07;25.30;99.90
19256;DHT22;9762;52.490;13.410;2023-06-22T04:41:38;25.40;99.90
19256;DHT22;9762;52.490;13.410;2023-06-22T04:44:14;25.40;99.90
19256;DHT22;9762;52.490;13.410;2023-06-22T04:46:52;25.40;99.90
19256;DHT22;9762;52.490;13.410;2023-06-22T04:54:30;25.30;99.90
19256;DHT22;9762;52.490;13.410;2023-06-22T04:56:59;25.50;99.90
19256;DHT22;9762;52.490;13.410;2023-06-22T04:59:29;25.30;99.90
19256;DHT22;9762;52.490;13.410;2023-06-22T05:01:59;25.40;99.90
19256;DHT22;9762;52.490;13.410;2023-06-22T05:04:26;25.20;99.90
19256;DHT22;9762;52.490;13.410;2023-06-22T05:09:20;25.10;99.90
19256;DHT22;9762;52.490;13.410;2023-06-22T05:11:46;25.10;99.90
19256;DHT22;9762;52.490;13.410;2023-06-22T05:16:38;25.20;99.90
19256;DHT22;9762;52.490;13.410;2023-06-22T05:19:04;25.30;99.90
19256;DHT22;9762;52.490;13.410;2023-06-22T05:21:31;25.40;99.90
19256;DHT22;9762;52.490;13.410;2023-06-22T05:23:57;25.50;99.90
19256;DHT22;9762;52.490;13.410;2023-06-22T05:26:31;25.60;99.90
19256;DHT22;9762;52.490;13.410;2023-06-22T05:28:59;25.70;99.90
19256;DHT22;9762;52.490;13.410;2023-06-22T05:31:27;25.80;99.90
19256;DHT22;9762;52.490;13.410;2023-06-22T05:36:20;25.80;99.90
19256;DHT22;9762;52.490;13.410;2023-06-22T05:38:47;25.90;99.90
19256;DHT22;9762;52.490;13.410;2023-06-22T05:41:12;26.00;99.90
19256;DHT22;9762;52.490;13.410;2023-06-22T05:43:39;25.90;99.90
19256;DHT22;9762;52.490;13.410;2023-06-22T05:46:05;26.00;99.90
19256;DHT22;9762;52.490;13.410;2023-06-22T05:48:31;26.10;99.90
19256;DHT22;9762;52.490;13.410;2023-06-22T05:50:56;26.20;99.90
19256;DHT22;9762;52.490;13.410;2023-06-22T05:53:22;26.20;99.90
19256;DHT22;9762;52.490;13.410;2023-06-22T05:55:48;26.20;99.90
19256;DHT22;9762;52.490;13.410;2023-06-22T05:58:13;26.30;99.90
19256;DHT22;9762;52.490;13.410;2023-06-22T06:00:39;26.30;99.90
19256;DHT22;9762;52.490;13.410;2023-06-22T06:03:06;26.40;99.90
19256;DHT22;9762;52.490;13.410;2023-06-22T06:05:33;26.40;99.90
19256;DHT22;9762;52.490;13.410;2023-06-22T06:08:04;26.50;99.90
19256;DHT22;9762;52.490;13.410;2023-06-22T06:10:33;26.40;99.90
19256;DHT22;9762;52.490;13.410;2023-06-22T06:12:59;26.40;99.90
19256;DHT22;9762;52.490;13.410;2023-06-22T06:15:27;26.40;99.90
19256;DHT22;9762;52.490;13.410;2023-06-22T06:17:53;26.50;99.90
19256;DHT22;9762;52.490;13.410;2023-06-22T06:20:24;26.60;99.90
19256;DHT22;9762;52.490;13.410;2023-06-22T06:22:50;26.60;99.80
19256;DHT22;9762;52.490;13.410;2023-06-22T06:25:16;26.60;99.50
19256;DHT22;9762;52.490;13.410;2023-06-22T06:27:43;26.50;99.50
19256;DHT22;9762;52.490;13.410;2023-06-22T06:30:10;26.60;99.80
19256;DHT22;9762;52.490;13.410;2023-06-22T06:32:36;26.60;99.40
19256;DHT22;9762;52.490;13.410;2023-06-22T06:35:07;26.50;99.50
19256;DHT22;9762;52.490;13.410;2023-06-22T06:37:36;26.60;99.80
19256;DHT22;9762;52.490;13.410;2023-06-22T06:40:04;26.70;99.60
19256;DHT22;9762;52.490;13.410;2023-06-22T06:42:40;26.70;99.20
19256;DHT22;9762;52.490;13.410;2023-06-22T06:45:16;26.60;99.10
19256;DHT22;9762;52.490;13.410;2023-06-22T06:47:42;26.60;99.30
19256;DHT22;9762;52.490;13.410;2023-06-22T06:50:08;26.70;98.90
19256;DHT22;9762;52.490;13.410;2023-06-22T06:52:35;26.70;98.80
19256;DHT22;9762;52.490;13.410;2023-06-22T06:55:00;26.70;99.10
19256;DHT22;9762;52.490;13.410;2023-06-22T06:57:26;26.70;98.50
19256;DHT22;9762;52.490;13.410;2023-06-22T06:59:56;26.80;98.50
19256;DHT22;9762;52.490;13.410;2023-06-22T07:02:22;26.80;98.30
19256;DHT22;9762;52.490;13.410;2023-06-22T07:04:48;26.90;97.90
19256;DHT22;9762;52.490;13.410;2023-06-22T07:07:14;26.90;97.70
19256;DHT22;9762;52.490;13.410;2023-06-22T07:09:39;27.00;97.50
19256;DHT22;9762;52.490;13.410;2023-06-22T07:12:05;27.00;97.30
19256;DHT22;9762;52.490;13.410;2023-06-22T07:14:31;26.90;97.30
19256;DHT22;9762;52.490;13.410;2023-06-22T07:16:57;26.90;97.50
19256;DHT22;9762;52.490;13.410;2023-06-22T07:19:27;27.00;97.60
19256;DHT22;9762;52.490;13.410;2023-06-22T07:21:54;27.10;97.70
19256;DHT22;9762;52.490;13.410;2023-06-22T07:24:23;27.10;97.20
19256;DHT22;9762;52.490;13.410;2023-06-22T07:26:50;27.20;97.10
19256;DHT22;9762;52.490;13.410;2023-06-22T07:29:17;27.10;96.60
19256;DHT22;9762;52.490;13.410;2023-06-22T07:31:43;27.10;96.20
19256;DHT22;9762;52.490;13.410;2023-06-22T07:34:08;27.10;96.20
19256;DHT22;9762;52.490;13.410;2023-06-22T07:36:34;27.30;96.30
19256;DHT22;9762;52.490;13.410;2023-06-22T07:39:04;27.40;96.30
19256;DHT22;9762;52.490;13.410;2023-06-22T07:41:30;27.50;95.80
19256;DHT22;9762;52.490;13.410;2023-06-22T07:43:55;27.60;95.10
19256;DHT22;9762;52.490;13.410;2023-06-22T07:46:21;27.50;94.90
19256;DHT22;9762;52.490;13.410;2023-06-22T07:48:47;27.50;94.80
19256;DHT22;9762;52.490;13.410;2023-06-22T07:51:13;27.60;94.70
19256;DHT22;9762;52.490;13.410;2023-06-22T07:53:43;27.60;94.30
19256;DHT22;9762;52.490;13.410;2023-06-22T07:56:13;27.60;93.90
19256;DHT22;9762;52.490;13.410;2023-06-22T07:58:39;27.70;93.50
19256;DHT22;9762;52.490;13.410;2023-06-22T08:01:05;27.80;93.60
19256;DHT22;9762;52.490;13.410;2023-06-22T08:03:31;28.00;92.70
19256;DHT22;9762;52.490;13.410;2023-06-22T08:05:57;28.00;92.70
19256;DHT22;9762;52.490;13.410;2023-06-22T08:08:23;28.20;92.50
19256;DHT22;9762;52.490;13.410;2023-06-22T08:10:49;28.30;91.80
19256;DHT22;9762;52.490;13.410;2023-06-22T08:13:15;28.40;90.70
19256;DHT22;9762;52.490;13.410;2023-06-22T08:15:40;28.50;90.30
19256;DHT22;9762;52.490;13.410;2023-06-22T08:18:06;28.60;89.20
19256;DHT22;9762;52.490;13.410;2023-06-22T08:20:31;28.50;87.50
19256;DHT22;9762;52.490;13.410;2023-06-22T08:22:58;28.50;87.20
19256;DHT22;9762;52.490;13.410;2023-06-22T08:25:30;28.60;88.10
19256;DHT22;9762;52.490;13.410;2023-06-22T08:27:56;28.60;87.70
19256;DHT22;9762;52.490;13.410;2023-06-22T08:30:21;28.60;86.70
19256;DHT22;9762;52.490;13.410;2023-06-22T08:32:47;28.70;87.10
19256;DHT22;9762;52.490;13.410;2023-06-22T08:35:13;28.70;86.70
19256;DHT22;9762;52.490;13.410;2023-06-22T08:37:39;28.70;86.50
19256;DHT22;9762;52.490;13.410;2023-06-22T08:40:07;28.80;86.80
19256;DHT22;9762;52.490;13.410;2023-06-22T08:42:35;28.80;86.30
19256;DHT22;9762;52.490;13.410;2023-06-22T08:45:01;28.80;86.90
19256;DHT22;9762;52.490;13.410;2023-06-22T08:47:29;28.70;87.30
19256;DHT22;9762;52.490;13.410;2023-06-22T08:49:55;28.80;87.80
19256;DHT22;9762;52.490;13.410;2023-06-22T08:52:23;28.90;87.70
19256;DHT22;9762;52.490;13.410;2023-06-22T08:54:49;29.00;88.00
19256;DHT22;9762;52.490;13.410;2023-06-22T08:57:15;29.10;87.50
19256;DHT22;9762;52.490;13.410;2023-06-22T08:59:41;29.10;86.40
19256;DHT22;9762;52.490;13.410;2023-06-22T09:02:07;29.10;86.60
19256;DHT22;9762;52.490;13.410;2023-06-22T09:04:33;29.20;87.00
19256;DHT22;9762;52.490;13.410;2023-06-22T09:07:02;29.30;87.70
19256;DHT22;9762;52.490;13.410;2023-06-22T09:09:28;29.40;87.10
19256;DHT22;9762;52.490;13.410;2023-06-22T09:11:53;29.60;89.20
19256;DHT22;9762;52.490;13.410;2023-06-22T09:14:19;29.60;88.90
19256;DHT22;9762;52.490;13.410;2023-06-22T09:16:45;29.60;89.00
19256;DHT22;9762;52.490;13.410;2023-06-22T09:19:10;29.70;88.40
19256;DHT22;9762;52.490;13.410;2023-06-22T09:21:36;29.80;87.70
19256;DHT22;9762;52.490;13.410;2023-06-22T09:24:02;29.70;87.00
19256;DHT22;9762;52.490;13.410;2023-06-22T09:26:28;29.80;87.20
19256;DHT22;9762;52.490;13.410;2023-06-22T09:28:54;29.70;85.00
19256;DHT22;9762;52.490;13.410;2023-06-22T09:31:19;29.80;85.30
19256;DHT22;9762;52.490;13.410;2023-06-22T09:33:52;29.60;84.40
19256;DHT22;9762;52.490;13.410;2023-06-22T09:36:18;29.60;84.10
19256;DHT22;9762;52.490;13.410;2023-06-22T09:38:43;29.70;84.90
19256;DHT22;9762;52.490;13.410;2023-06-22T09:41:09;29.80;84.80
19256;DHT22;9762;52.490;13.410;2023-06-22T09:43:34;30.20;83.40
19256;DHT22;9762;52.490;13.410;2023-06-22T09:46:01;29.70;82.30
19256;DHT22;9762;52.490;13.410;2023-06-22T09:48:28;29.80;82.60
19256;DHT22;9762;52.490;13.410;2023-06-22T09:50:54;29.90;82.80
19256;DHT22;9762;52.490;13.410;2023-06-22T09:53:20;30.00;82.90
19256;DHT22;9762;52.490;13.410;2023-06-22T09:55:46;30.00;82.40
19256;DHT22;9762;52.490;13.410;2023-06-22T09:58:11;30.10;82.20
19256;DHT22;9762;52.490;13.410;2023-06-22T10:00:37;30.20;81.20
19256;DHT22;9762;52.490;13.410;2023-06-22T10:03:03;30.20;80.10
19256;DHT22;9762;52.490;13.410;2023-06-22T10:05:28;30.30;79.60
19256;DHT22;9762;52.490;13.410;2023-06-22T10:07:54;30.40;79.10
19256;DHT22;9762;52.490;13.410;2023-06-22T10:10:19;30.40;78.80
19256;DHT22;9762;52.490;13.410;2023-06-22T10:12:54;30.40;78.70
19256;DHT22;9762;52.490;13.410;2023-06-22T10:15:20;30.40;79.00
19256;DHT22;9762;52.490;13.410;2023-06-22T10:17:46;30.40;78.80
19256;DHT22;9762;52.490;13.410;2023-06-22T10:20:12;30.60;77.20
19256;DHT22;9762;52.490;13.410;2023-06-22T10:22:43;30.70;72.90
19256;DHT22;9762;52.490;13.410;2023-06-22T10:25:10;30.90;71.40
19256;DHT22;9762;52.490;13.410;2023-06-22T10:27:35;30.90;70.70
19256;DHT22;9762;52.490;13.410;2023-06-22T10:30:01;31.10;69.50
19256;DHT22;9762;52.490;13.410;2023-06-22T10:32:27;31.10;68.70
19256;DHT22;9762;52.490;13.410;2023-06-22T10:34:56;31.20;69.20
19256;DHT22;9762;52.490;13.410;2023-06-22T10:37:22;31.30;76.50
19256;DHT22;9762;52.490;13.410;2023-06-22T10:39:47;31.40;78.00
19256;DHT22;9762;52.490;13.410;2023-06-22T10:42:13;31.50;77.50
19256;DHT22;9762;52.490;13.410;2023-06-22T10:44:39;31.60;77.50
19256;DHT22;9762;52.490;13.410;2023-06-22T10:47:06;31.50;76.70
19256;DHT22;9762;52.490;13.410;2023-06-22T10:49:32;31.50;77.60
19256;DHT22;9762;52.490;13.410;2023-06-22T10:51:58;31.50;77.50
19256;DHT22;9762;52.490;13.410;2023-06-22T10:54:23;31.40;78.40
19256;DHT22;9762;52.490;13.410;2023-06-22T10:56:49;31.50;78.70
19256;DHT22;9762;52.490;13.410;2023-06-22T10:59:16;31.60;76.50
19256;DHT22;9762;52.490;13.410;2023-06-22T11:01:41;31.70;75.50
19256;DHT22;9762;52.490;13.410;2023-06-22T11:04:07;31.70;76.80
19256;DHT22;9762;52.490;13.410;2023-06-22T11:06:33;31.80;70.30
19256;DHT22;9762;52.490;13.410;2023-06-22T11:08:58;31.80;68.90
19256;DHT22;9762;52.490;13.410;2023-06-22T11:11:25;31.80;67.30
19256;DHT22;9762;52.490;13.410;2023-06-22T11:13:52;31.80;65.40
19256;DHT22;9762;52.490;13.410;2023-06-22T11:16:17;31.90;66.60
19256;DHT22;9762;52.490;13.410;2023-06-22T11:18:43;31.90;65.30
19256;DHT22;9762;52.490;13.410;2023-06-22T11:21:09;32.00;63.10
19256;DHT22;9762;52.490;13.410;2023-06-22T11:23:34;32.00;60.80
19256;DHT22;9762;52.490;13.410;2023-06-22T11:26:00;32.30;60.20
19256;DHT22;9762;52.490;13.410;2023-06-22T11:28:25;32.00;60.10
19256;DHT22;9762;52.490;13.410;2023-06-22T11:30:51;32.10;60.70
19256;DHT22;9762;52.490;13.410;2023-06-22T11:33:17;32.20;60.10
19256;DHT22;9762;52.490;13.410;2023-06-22T11:35:42;32.30;61.30
19256;DHT22;9762;52.490;13.410;2023-06-22T11:38:08;32.40;65.80
19256;DHT22;9762;52.490;13.410;2023-06-22T11:40:34;32.40;69.00
19256;DHT22;9762;52.490;13.410;2023-06-22T11:42:59;32.40;64.50
19256;DHT22;9762;52.490;13.410;2023-06-22T11:45:25;32.40;65.20
19256;DHT22;9762;52.490;13.410;2023-06-22T11:47:51;32.40;65.60
19256;DHT22;9762;52.490;13.410;2023-06-22T11:50:16;32.50;66.60
19256;DHT22;9762;52.490;13.410;2023-06-22T11:52:42;32.60;72.90
19256;DHT22;9762;52.490;13.410;2023-06-22T11:55:08;32.70;72.50
19256;DHT22;9762;52.490;13.410;2023-06-22T11:57:35;32.80;69.30
19256;DHT22;9762;52.490;13.410;2023-06-22T12:00:02;32.90;67.20
19256;DHT22;9762;52.490;13.410;2023-06-22T12:02:32;33.00;69.50
19256;DHT22;9762;52.490;13.410;2023-06-22T12:09:49;33.30;59.00
19256;DHT22;9762;52.490;13.410;2023-06-22T12:12:15;33.40;61.40
19256;DHT22;9762;52.490;13.410;2023-06-22T12:14:41;33.40;63.60
19256;DHT22;9762;52.490;13.410;2023-06-22T12:17:06;33.50;65.20
19256;DHT22;9762;52.490;13.410;2023-06-22T12:19:32;33.60;66.00
19256;DHT22;9762;52.490;13.410;2023-06-22T12:26:50;33.50;55.20
19256;DHT22;9762;52.490;13.410;2023-06-22T12:29:15;33.50;59.50
19256;DHT22;9762;52.490;13.410;2023-06-22T12:31:41;33.50;58.90
19256;DHT22;9762;52.490;13.410;2023-06-22T12:41:25;33.70;57.80
19256;DHT22;9762;52.490;13.410;2023-06-22T12:51:09;33.90;73.10
19256;DHT22;9762;52.490;13.410;2023-06-22T12:53:35;33.90;57.30
19256;DHT22;9762;52.490;13.410;2023-06-22T12:56:01;34.00;59.90
19256;DHT22;9762;52.490;13.410;2023-06-22T12:58:27;33.80;62.30
19256;DHT22;9762;52.490;13.410;2023-06-22T13:00:52;34.20;84.40
19256;DHT22;9762;52.490;13.410;2023-06-22T13:03:18;34.10;56.40
19256;DHT22;9762;52.490;13.410;2023-06-22T13:15:28;33.00;60.60
19256;DHT22;9762;52.490;13.410;2023-06-22T13:17:55;34.90;64.60
19256;DHT22;9762;52.490;13.410;2023-06-22T13:20:21;34.90;56.40
19256;DHT22;9762;52.490;13.410;2023-06-22T13:22:46;35.10;56.90
19256;DHT22;9762;52.490;13.410;2023-06-22T13:25:12;35.30;55.80
19256;DHT22;9762;52.490;13.410;2023-06-22T13:27:41;35.50;66.60
19256;DHT22;9762;52.490;13.410;2023-06-22T13:30:08;35.70;59.80
19256;DHT22;9762;52.490;13.410;2023-06-22T13:32:34;35.90;59.30
19256;DHT22;9762;52.490;13.410;2023-06-22T13:37:26;36.70;87.60
19256;DHT22;9762;52.490;13.410;2023-06-22T13:39:51;36.60;49.20
19256;DHT22;9762;52.490;13.410;2023-06-22T13:42:17;36.90;47.90
19256;DHT22;9762;52.490;13.410;2023-06-22T13:44:43;37.00;47.10
19256;DHT22;9762;52.490;13.410;2023-06-22T13:47:09;37.10;45.30
19256;DHT22;9762;52.490;13.410;2023-06-22T13:49:34;36.90;45.50
19256;DHT22;9762;52.490;13.410;2023-06-22T13:52:00;36.80;45.60
19256;DHT22;9762;52.490;13.410;2023-06-22T13:54:26;36.70;46.50
19256;DHT22;9762;52.490;13.410;2023-06-22T13:56:51;36.70;46.80
19256;DHT22;9762;52.490;13.410;2023-06-22T13:59:17;36.60;45.70
19256;DHT22;9762;52.490;13.410;2023-06-22T14:01:43;36.50;47.60
19256;DHT22;9762;52.490;13.410;2023-06-22T14:04:09;36.50;46.20
19256;DHT22;9762;52.490;13.410;2023-06-22T14:06:35;36.30;46.90
19256;DHT22;9762;52.490;13.410;2023-06-22T14:09:01;36.50;46.60
19256;DHT22;9762;52.490;13.410;2023-06-22T14:11:26;36.40;46.50
19256;DHT22;9762;52.490;13.410;2023-06-22T14:13:55;36.10;47.10
19256;DHT22;9762;52.490;13.410;2023-06-22T14:16:20;36.00;47.00
19256;DHT22;9762;52.490;13.410;2023-06-22T14:18:46;35.80;47.40
19256;DHT22;9762;52.490;13.410;2023-06-22T14:21:14;35.80;47.40
19256;DHT22;9762;52.490;13.410;2023-06-22T14:23:40;36.00;47.70
19256;DHT22;9762;52.490;13.410;2023-06-22T14:26:05;36.20;47.70
19256;DHT22;9762;52.490;13.410;2023-06-22T14:28:31;36.30;47.70
19256;DHT22;9762;52.490;13.410;2023-06-22T14:30:57;36.30;47.20
19256;DHT22;9762;52.490;13.410;2023-06-22T14:33:23;36.30;46.50
19256;DHT22;9762;52.490;13.410;2023-06-22T14:35:49;36.30;47.00
19256;DHT22;9762;52.490;13.410;2023-06-22T14:38:14;36.60;47.30
19256;DHT22;9762;52.490;13.410;2023-06-22T14:40:40;36.70;46.70
19256;DHT22;9762;52.490;13.410;2023-06-22T14:43:06;36.80;46.80
19256;DHT22;9762;52.490;13.410;2023-06-22T14:45:31;36.70;46.20
19256;DHT22;9762;52.490;13.410;2023-06-22T14:47:57;36.80;46.50
19256;DHT22;9762;52.490;13.410;2023-06-22T14:50:23;37.00;46.00
19256;DHT22;9762;52.490;13.410;2023-06-22T14:52:48;37.00;45.90
19256;DHT22;9762;52.490;13.410;2023-06-22T14:55:14;36.80;46.00
19256;DHT22;9762;52.490;13.410;2023-06-22T14:57:40;36.80;46.40
19256;DHT22;9762;52.490;13.410;2023-06-22T15:00:06;36.70;45.90
19256;DHT22;9762;52.490;13.410;2023-06-22T15:02:32;36.60;46.60
19256;DHT22;9762;52.490;13.410;2023-06-22T15:04:58;36.30;46.10
19256;DHT22;9762;52.490;13.410;2023-06-22T15:07:23;35.80;46.50
19256;DHT22;9762;52.490;13.410;2023-06-22T15:09:49;35.30;47.40
19256;DHT22;9762;52.490;13.410;2023-06-22T15:12:15;35.20;47.70
19256;DHT22;9762;52.490;13.410;2023-06-22T15:14:41;35.40;47.70
19256;DHT22;9762;52.490;13.410;2023-06-22T15:17:08;35.40;47.50
19256;DHT22;9762;52.490;13.410;2023-06-22T15:19:37;35.50;47.90
19256;DHT22;9762;52.490;13.410;2023-06-22T15:22:04;35.50;47.80
19256;DHT22;9762;52.490;13.410;2023-06-22T15:24:31;35.80;48.10
19256;DHT22;9762;52.490;13.410;2023-06-22T15:26:57;35.80;47.50
19256;DHT22;9762;52.490;13.410;2023-06-22T15:29:22;35.80;47.10
19256;DHT22;9762;52.490;13.410;2023-06-22T15:31:48;35.40;47.50
19256;DHT22;9762;52.490;13.410;2023-06-22T15:34:14;35.30;48.10
19256;DHT22;9762;52.490;13.410;2023-06-22T15:36:39;35.20;48.20
19256;DHT22;9762;52.490;13.410;2023-06-22T15:39:05;35.30;48.10
19256;DHT22;9762;52.490;13.410;2023-06-22T15:41:31;35.30;48.30
19256;DHT22;9762;52.490;13.410;2023-06-22T15:43:59;35.20;48.10
19256;DHT22;9762;52.490;13.410;2023-06-22T15:46:25;34.90;48.50
19256;DHT22;9762;52.490;13.410;2023-06-22T15:48:51;34.80;49.60
19256;DHT22;9762;52.490;13.410;2023-06-22T15:51:16;34.80;49.00
19256;DHT22;9762;52.490;13.410;2023-06-22T15:53:42;34.80;49.20
19256;DHT22;9762;52.490;13.410;2023-06-22T15:56:08;34.70;49.00
19256;DHT22;9762;52.490;13.410;2023-06-22T15:58:36;34.20;49.70
19256;DHT22;9762;52.490;13.410;2023-06-22T16:01:05;34.10;50.10
19256;DHT22;9762;52.490;13.410;2023-06-22T16:03:36;33.60;50.70
19256;DHT22;9762;52.490;13.410;2023-06-22T16:06:02;33.30;51.20
19256;DHT22;9762;52.490;13.410;2023-06-22T16:08:27;33.00;51.70
19256;DHT22;9762;52.490;13.410;2023-06-22T16:10:56;32.80;52.20
19256;DHT22;9762;52.490;13.410;2023-06-22T16:13:21;32.70;52.40
19256;DHT22;9762;52.490;13.410;2023-06-22T16:15:47;32.60;52.80
19256;DHT22;9762;52.490;13.410;2023-06-22T16:18:12;32.40;53.00
19256;DHT22;9762;52.490;13.410;2023-06-22T16:20:38;32.30;53.40
19256;DHT22;9762;52.490;13.410;2023-06-22T16:23:04;32.30;53.70
19256;DHT22;9762;52.490;13.410;2023-06-22T16:25:30;32.00;54.00
19256;DHT22;9762;52.490;13.410;2023-06-22T16:27:55;32.00;54.40
19256;DHT22;9762;52.490;13.410;2023-06-22T16:30:21;32.00;54.40
19256;DHT22;9762;52.490;13.410;2023-06-22T16:32:54;31.90;54.50
19256;DHT22;9762;52.490;13.410;2023-06-22T16:35:22;31.90;54.40
19256;DHT22;9762;52.490;13.410;2023-06-22T16:37:48;31.60;59.10
19256;DHT22;9762;52.490;13.410;2023-06-22T16:40:14;31.50;58.30
19256;DHT22;9762;52.490;13.410;2023-06-22T16:42:40;31.30;57.60
19256;DHT22;9762;52.490;13.410;2023-06-22T16:45:06;31.20;61.50
19256;DHT22;9762;52.490;13.410;2023-06-22T16:50:00;30.60;78.50
19256;DHT22;9762;52.490;13.410;2023-06-22T16:52:25;30.40;61.70
19256;DHT22;9762;52.490;13.410;2023-06-22T16:54:51;30.50;58.00
19256;DHT22;9762;52.490;13.410;2023-06-22T16:57:18;30.60;57.60
19256;DHT22;9762;52.490;13.410;2023-06-22T16:59:45;30.60;57.40
19256;DHT22;9762;52.490;13.410;2023-06-22T17:02:17;30.60;57.40
19256;DHT22;9762;52.490;13.410;2023-06-22T17:04:45;30.50;57.60
19256;DHT22;9762;52.490;13.410;2023-06-22T17:07:15;30.30;58.50
19256;DHT22;9762;52.490;13.410;2023-06-22T17:09:46;30.10;65.00
19256;DHT22;9762;52.490;13.410;2023-06-22T17:12:12;30.10;63.80
19256;DHT22;9762;52.490;13.410;2023-06-22T17:14:42;30.20;63.80
19256;DHT22;9762;52.490;13.410;2023-06-22T17:17:12;30.20;64.40
19256;DHT22;9762;52.490;13.410;2023-06-22T17:19:38;30.20;64.30
19256;DHT22;9762;52.490;13.410;2023-06-22T17:22:04;30.30;63.20